Weather at Austin Straubel International Airport

Public forecast

Using degrees Fahrenheit for public forecast. Weather courtesy of forecast.io.

Current aviation weather report (METAR) for Austin Straubel International Airport

Retrieved 2020/10/01 20:53 UTC (35 minutes ago):

KGRB 012053Z AUTO 01009KT 10SM BKN045 BKN055 OVC080 13/03 A3003 RMK AO2 SLP172 T01330033 53008

Aviation forecast (TAF) for Austin Straubel International Airport

Retrieved 2020/10/01 18:42 UTC (3 hours ago):

TAF KGRB 011741Z 0118/0218 35010G17KT P6SM VCSH SCT030 BKN040 FM020000 36008KT P6SM BKN060 FM020400 34006KT P6SM SCT090 FM021000 33006KT P6SM SKC